Time;durP1;ratioP1;P1;durP2;ratioP2;P2;SDS_P1;SDS_P2;PMS_P1;PMS_P2;Temp;Humidity;BMP_temperature;BMP_pressure;BME280_temperature;BME280_humidity;BME280_pressure;Samples;Min_cycle;Max_cycle;Signal;HPM_P1;HPM_P2
2023/07/01 00:00:59;;;;;;;7.82;3.10;;;18.70;1.00;;;;;;19805939;29;20130;-40
2023/07/01 00:11:01;;;;;;;5.95;2.65;;;18.60;1.00;;;;;;19810010;29;20126;-40
2023/07/01 00:21:02;;;;;;;9.68;3.42;;;18.50;1.00;;;;;;19807975;29;20115;-39
2023/07/01 00:31:03;;;;;;;5.10;2.50;;;18.40;1.00;;;;;;19789758;29;20439;-39
2023/07/01 00:41:04;;;;;;;6.35;2.90;;;18.20;1.00;;;;;;19793233;29;20661;-39
2023/07/01 00:51:06;;;;;;;6.38;3.30;;;17.90;1.00;;;;;;19785158;29;20200;-40
2023/07/01 01:01:17;;;;;;;7.13;3.25;;;17.80;1.00;;;;;;19788839;29;20134;-40
2023/07/01 01:11:20;;;;;;;7.05;3.45;;;17.90;1.00;;;;;;19794815;29;21542;-39
2023/07/01 01:21:22;;;;;;;7.95;4.28;;;17.90;1.00;;;;;;19786188;29;20047;-40
2023/07/01 01:31:23;;;;;;;7.22;3.47;;;17.90;1.00;;;;;;19786768;29;20445;-39
2023/07/01 01:41:38;;;;;;;6.55;3.67;;;17.90;1.00;;;;;;19796115;29;20606;-40
2023/07/01 01:51:40;;;;;;;6.82;3.35;;;17.80;1.00;;;;;;19788656;29;20321;-40
2023/07/01 02:01:42;;;;;;;6.22;3.20;;;17.70;1.00;;;;;;19775064;29;20039;-39
2023/07/01 02:11:44;;;;;;;7.32;3.65;;;17.70;1.00;;;;;;19786498;29;20035;-39
2023/07/01 02:21:45;;;;;;;8.07;3.72;;;17.70;1.00;;;;;;19780020;29;20579;-39
2023/07/01 02:31:46;;;;;;;8.00;4.18;;;17.80;1.00;;;;;;19788466;29;20228;-40
2023/07/01 02:41:47;;;;;;;6.80;3.95;;;17.50;1.00;;;;;;19791953;29;20098;-39
2023/07/01 02:51:49;;;;;;;8.82;4.80;;;17.50;1.00;;;;;;19786808;29;20035;-39
2023/07/01 03:01:50;;;;;;;8.90;4.40;;;17.60;1.00;;;;;;19782407;29;20043;-39
2023/07/01 03:11:54;;;;;;;8.80;4.13;;;17.50;1.00;;;;;;19793767;29;20058;-39
2023/07/01 03:21:55;;;;;;;7.68;4.65;;;17.40;1.00;;;;;;19787612;29;20051;-39
2023/07/01 03:31:56;;;;;;;8.20;4.80;;;17.50;1.00;;;;;;19776621;29;20054;-39
2023/07/01 03:41:57;;;;;;;5.97;3.92;;;17.50;1.00;;;;;;19787948;29;20047;-39
2023/07/01 03:51:59;;;;;;;7.88;4.65;;;17.50;1.00;;;;;;19771569;29;20050;-39
2023/07/01 04:02:00;;;;;;;10.07;5.35;;;17.40;1.00;;;;;;19786019;29;20092;-39
2023/07/01 04:12:02;;;;;;;9.05;6.60;;;17.30;1.00;;;;;;19785852;29;20044;-39
2023/07/01 04:22:04;;;;;;;9.82;6.95;;;17.30;1.00;;;;;;19786051;29;20598;-40
2023/07/01 04:32:06;;;;;;;8.50;7.40;;;17.20;13.30;;;;;;19653734;29;20052;-39
2023/07/01 04:42:07;;;;;;;8.77;7.72;;;17.00;50.60;;;;;;19651721;29;20188;-39
2023/07/01 04:52:09;;;;;;;8.65;7.75;;;16.90;88.50;;;;;;19654388;29;20044;-39
2023/07/01 05:02:10;;;;;;;9.27;8.27;;;16.80;99.90;;;;;;19646162;29;20036;-39
2023/07/01 05:12:11;;;;;;;11.60;8.82;;;16.80;99.90;;;;;;19649900;29;20044;-39
2023/07/01 05:22:12;;;;;;;10.13;7.88;;;16.90;99.90;;;;;;19642318;29;20048;-39
2023/07/01 05:32:14;;;;;;;11.73;8.10;;;16.90;99.90;;;;;;19647419;29;20420;-39
2023/07/01 05:42:15;;;;;;;12.82;8.23;;;17.00;99.90;;;;;;19643334;29;20051;-39
2023/07/01 05:52:16;;;;;;;12.38;9.10;;;17.00;99.90;;;;;;19648437;29;20279;-39
2023/07/01 06:02:17;;;;;;;11.63;9.15;;;17.00;99.90;;;;;;19641566;29;20051;-40
2023/07/01 06:12:18;;;;;;;9.93;7.60;;;17.00;99.90;;;;;;19642053;29;20145;-40
2023/07/01 06:22:20;;;;;;;8.10;7.20;;;17.00;99.90;;;;;;19648155;29;20064;-40
2023/07/01 06:32:21;;;;;;;8.77;7.65;;;17.10;99.90;;;;;;19635910;29;20568;-40
2023/07/01 06:42:23;;;;;;;8.50;7.63;;;17.00;99.90;;;;;;19633333;29;20525;-40
2023/07/01 06:52:24;;;;;;;9.23;7.40;;;17.20;99.90;;;;;;19632232;29;20457;-40
2023/07/01 07:02:25;;;;;;;10.25;8.57;;;17.20;99.90;;;;;;19632077;29;20456;-40
2023/07/01 07:12:26;;;;;;;9.65;7.90;;;17.20;99.90;;;;;;20043303;24;20051;-90
2023/07/01 07:22:48;;;;;;;11.40;8.35;;;17.30;99.90;;;;;;19674097;29;20626;-90
2023/07/01 07:33:09;;;;;;;9.25;8.18;;;17.30;99.90;;;;;;19674204;29;20101;-91
2023/07/01 07:43:31;;;;;;;8.57;7.30;;;17.40;99.90;;;;;;19693396;29;20043;-91
2023/07/01 07:53:52;;;;;;;7.68;6.07;;;17.50;99.90;;;;;;19697362;29;20065;-91
2023/07/01 08:04:13;;;;;;;9.57;7.38;;;17.50;99.90;;;;;;20120721;24;20119;-91
2023/07/01 08:14:35;;;;;;;6.70;5.43;;;17.60;99.90;;;;;;19796140;29;20065;-90
2023/07/01 08:24:57;;;;;;;6.57;4.90;;;17.70;99.90;;;;;;19834026;24;20066;-90
2023/07/01 08:35:28;;;;;;;6.15;4.60;;;17.70;99.90;;;;;;19648633;29;20046;-91
2023/07/01 08:45:51;;;;;;;6.95;4.07;;;17.90;99.90;;;;;;19731872;29;20747;-90
2023/07/01 08:56:13;;;;;;;4.50;3.45;;;18.20;99.90;;;;;;19681121;30;20039;-91
2023/07/01 09:16:45;;;;;;;4.20;3.50;;;18.10;99.90;;;;;;12318745;24;20089;-41
2023/07/01 09:27:08;;;;;;;5.50;3.40;;;18.30;99.90;;;;;;19824805;29;20427;-41
2023/07/01 09:37:19;;;;;;;3.45;2.78;;;18.30;99.90;;;;;;19850150;29;20058;-41
2023/07/01 09:47:26;;;;;;;2.55;1.83;;;18.30;99.90;;;;;;19852559;29;20050;-41
2023/07/01 09:57:29;;;;;;;;;;;18.30;99.90;;;;;;19835365;29;20059;-40
2023/07/01 10:07:30;;;;;;;6.43;4.00;;;18.40;99.90;;;;;;19843302;29;19997;-40
2023/07/01 10:17:48;;;;;;;9.20;5.38;;;18.50;99.90;;;;;;19823729;29;20504;-40
2023/07/01 10:28:09;;;;;;;7.95;6.25;;;18.40;99.90;;;;;;19799492;29;20635;-40
2023/07/01 10:38:21;;;;;;;9.80;7.43;;;18.50;99.90;;;;;;19796288;29;20702;-40
2023/07/01 10:48:23;;;;;;;11.80;7.15;;;18.50;99.90;;;;;;19806297;29;20099;-39
2023/07/01 10:58:27;;;;;;;10.40;6.25;;;18.50;99.90;;;;;;19804036;29;20122;-39
2023/07/01 11:08:30;;;;;;;9.05;6.13;;;18.50;99.90;;;;;;19802113;29;20188;-40
2023/07/01 11:18:47;;;;;;;12.30;6.72;;;18.50;99.90;;;;;;19795354;29;20090;-40
2023/07/01 11:28:49;;;;;;;11.80;6.93;;;18.80;99.90;;;;;;19814946;29;20114;-40
2023/07/01 11:38:50;;;;;;;9.18;6.45;;;18.80;99.90;;;;;;19804839;29;20174;-40
2023/07/01 11:48:51;;;;;;;9.07;6.55;;;18.80;99.90;;;;;;19802628;29;20159;-39
2023/07/01 11:58:52;;;;;;;8.13;5.50;;;19.20;99.90;;;;;;19805959;29;21082;-40
2023/07/01 12:09:02;;;;;;;8.70;5.05;;;19.00;99.90;;;;;;19806818;29;20570;-40
2023/07/01 12:19:03;;;;;;;7.30;4.80;;;19.00;99.90;;;;;;19812083;29;20136;-40
2023/07/01 12:29:04;;;;;;;8.95;5.50;;;19.10;99.90;;;;;;19810605;29;20174;-40
2023/07/01 12:39:09;;;;;;;12.32;6.05;;;19.20;99.90;;;;;;19788772;29;20043;-40
2023/07/01 12:49:11;;;;;;;11.77;5.97;;;19.40;99.90;;;;;;19787754;29;20372;-39
2023/07/01 12:59:12;;;;;;;3.85;2.55;;;19.30;99.90;;;;;;19801219;29;20116;-39
2023/07/01 13:09:14;;;;;;;2.92;1.42;;;19.10;91.70;;;;;;19795071;29;20069;-41
2023/07/01 13:19:21;;;;;;;4.78;3.03;;;18.90;99.90;;;;;;19782750;29;20118;-40
2023/07/01 13:29:23;;;;;;;4.03;2.45;;;19.00;58.60;;;;;;19797502;29;20043;-40
2023/07/01 13:39:43;;;;;;;5.95;3.85;;;19.20;30.40;;;;;;19787391;29;20055;-40
2023/07/01 13:49:45;;;;;;;5.82;3.47;;;19.20;18.70;;;;;;19785163;29;20047;-40
2023/07/01 13:59:46;;;;;;;5.57;2.83;;;18.80;1.00;;;;;;19795716;29;20047;-40
2023/07/01 14:09:47;;;;;;;4.97;1.92;;;18.50;6.80;;;;;;19798989;29;20043;-40
2023/07/01 14:19:54;;;;;;;3.63;1.83;;;18.50;1.00;;;;;;19799918;29;20058;-40
2023/07/01 14:29:55;;;;;;;4.03;2.17;;;18.70;1.00;;;;;;19796666;29;20046;-40
2023/07/01 14:39:56;;;;;;;4.60;2.28;;;19.00;1.00;;;;;;19796679;29;20439;-41
2023/07/01 14:49:58;;;;;;;4.38;3.00;;;19.10;1.00;;;;;;19801181;29;20051;-41
2023/07/01 14:59:59;;;;;;;5.40;3.72;;;19.20;1.00;;;;;;19792133;29;20115;-41
2023/07/01 15:10:00;;;;;;;8.82;4.38;;;19.20;1.00;;;;;;19785230;29;20065;-41
2023/07/01 15:20:02;;;;;;;6.38;4.20;;;19.20;1.00;;;;;;19772360;29;20459;-41
2023/07/01 15:30:07;;;;;;;6.65;4.55;;;19.30;1.00;;;;;;19777927;29;20099;-41
2023/07/01 15:40:08;;;;;;;6.40;4.03;;;19.50;1.00;;;;;;19783205;29;21418;-43
2023/07/01 15:50:10;;;;;;;4.80;2.80;;;19.70;1.00;;;;;;19778971;29;20498;-40
2023/07/01 16:00:12;;;;;;;5.97;3.30;;;19.90;1.00;;;;;;19781260;29;20044;-41
2023/07/01 16:10:13;;;;;;;3.42;2.97;;;19.90;1.00;;;;;;19779791;29;20503;-41
2023/07/01 16:20:32;;;;;;;4.20;3.50;;;20.00;1.00;;;;;;19779174;29;20355;-41
2023/07/01 16:30:40;;;;;;;2.95;2.33;;;20.20;1.00;;;;;;19784832;29;20051;-41
2023/07/01 16:40:46;;;;;;;5.72;2.97;;;20.40;1.00;;;;;;19787421;29;20506;-41
2023/07/01 16:50:57;;;;;;;3.30;2.60;;;20.40;1.00;;;;;;19788127;29;20047;-41
2023/07/01 17:01:07;;;;;;;5.20;1.98;;;20.30;1.00;;;;;;19785585;29;20508;-41
2023/07/01 17:11:10;;;;;;;3.55;2.17;;;20.20;1.00;;;;;;19782319;29;20608;-41
2023/07/01 17:21:11;;;;;;;4.03;1.30;;;19.90;1.00;;;;;;19788363;29;20076;-40
2023/07/01 17:31:12;;;;;;;2.42;1.25;;;20.00;1.00;;;;;;19788048;29;20116;-41
2023/07/01 17:41:13;;;;;;;3.33;0.88;;;19.80;1.00;;;;;;19777678;29;20050;-41
2023/07/01 17:51:14;;;;;;;2.92;1.30;;;19.60;1.00;;;;;;19780043;29;20051;-41
2023/07/01 18:01:16;;;;;;;2.35;1.33;;;19.60;1.00;;;;;;19780917;29;20149;-41
2023/07/01 18:11:17;;;;;;;2.85;1.00;;;19.40;1.00;;;;;;19796152;29;20107;-41
2023/07/01 18:21:23;;;;;;;5.50;1.27;;;19.40;1.00;;;;;;19789780;29;20126;-41
2023/07/01 18:31:24;;;;;;;4.72;1.27;;;19.20;1.00;;;;;;19780577;29;20043;-41
2023/07/01 18:41:25;;;;;;;3.50;1.20;;;19.10;1.00;;;;;;19788749;29;20174;-40
2023/07/01 18:51:30;;;;;;;3.22;1.08;;;19.10;1.00;;;;;;19783934;29;20196;-41
2023/07/01 19:01:34;;;;;;;4.50;1.65;;;19.00;1.00;;;;;;19740676;29;20075;-42
2023/07/01 19:11:35;;;;;;;2.92;1.45;;;19.00;1.00;;;;;;19682308;29;20628;-41
2023/07/01 19:21:37;;;;;;;2.58;1.25;;;18.80;1.00;;;;;;19723276;29;20059;-41
2023/07/01 19:31:38;;;;;;;4.00;1.60;;;18.60;1.00;;;;;;19712436;29;20044;-40
2023/07/01 19:41:39;;;;;;;4.75;1.50;;;18.80;1.00;;;;;;19709166;29;20485;-40
2023/07/01 19:51:41;;;;;;;3.47;1.70;;;18.60;1.00;;;;;;19706199;29;20477;-40
2023/07/01 20:01:43;;;;;;;3.17;1.55;;;18.50;1.00;;;;;;19712058;29;20138;-40
2023/07/01 20:11:44;;;;;;;6.22;1.85;;;18.40;1.00;;;;;;19717910;29;20340;-40
2023/07/01 20:21:45;;;;;;;2.85;1.67;;;18.40;1.00;;;;;;19715476;29;20165;-40
2023/07/01 20:31:46;;;;;;;6.53;2.33;;;18.20;1.00;;;;;;19695879;29;20154;-40
2023/07/01 20:41:49;;;;;;;2.70;1.55;;;18.20;1.00;;;;;;19647643;30;20134;-40
2023/07/01 20:51:51;;;;;;;3.70;1.70;;;18.20;1.00;;;;;;19724677;29;21338;-40
2023/07/01 21:01:52;;;;;;;3.83;1.48;;;18.10;1.00;;;;;;19730952;29;20516;-40
2023/07/01 21:11:53;;;;;;;3.78;1.60;;;18.20;1.00;;;;;;19730497;29;20055;-40
2023/07/01 21:21:54;;;;;;;3.22;1.75;;;18.10;1.00;;;;;;19721964;29;20059;-40
2023/07/01 21:31:56;;;;;;;3.67;1.50;;;18.20;1.00;;;;;;19667423;29;20273;-41
2023/07/01 21:41:57;;;;;;;4.20;1.50;;;18.20;1.00;;;;;;19699321;29;20112;-40
2023/07/01 21:51:58;;;;;;;3.38;1.60;;;18.20;1.00;;;;;;19728576;29;20043;-40
2023/07/01 22:02:00;;;;;;;3.03;1.50;;;18.20;1.00;;;;;;19764456;29;20967;-40
2023/07/01 22:12:02;;;;;;;4.05;1.83;;;18.20;1.00;;;;;;19801150;29;20055;-40
2023/07/01 22:22:03;;;;;;;3.05;1.70;;;18.10;1.00;;;;;;19795603;29;20176;-40
2023/07/01 22:32:05;;;;;;;4.35;1.90;;;18.20;1.00;;;;;;19796160;29;20055;-40
2023/07/01 22:42:06;;;;;;;9.98;2.75;;;18.10;1.00;;;;;;19798024;29;20581;-40
2023/07/01 22:52:08;;;;;;;5.65;2.60;;;18.10;1.00;;;;;;19792289;29;20050;-40
2023/07/01 23:02:09;;;;;;;4.88;2.60;;;18.10;1.00;;;;;;19796681;29;20058;-40
2023/07/01 23:12:10;;;;;;;6.95;2.58;;;18.20;1.00;;;;;;19793754;29;20055;-40
2023/07/01 23:22:11;;;;;;;5.50;2.72;;;18.10;1.00;;;;;;19757735;29;1067213;-40
2023/07/01 23:32:15;;;;;;;5.22;2.90;;;17.90;1.00;;;;;;19802165;29;20133;-40
2023/07/01 23:42:16;;;;;;;6.97;3.30;;;17.80;1.00;;;;;;19812853;29;20058;-40
2023/07/01 23:52:17;;;;;;;7.82;3.67;;;17.80;1.00;;;;;;19814223;29;20435;-40
